Time;durP1;ratioP1;P1;durP2;ratioP2;P2;SDS_P1;SDS_P2;PMS_P1;PMS_P2;Temp;Humidity;BMP_temperature;BMP_pressure;BME280_temperature;BME280_humidity;BME280_pressure;Samples;Min_cycle;Max_cycle;Signal;HPM_P1;HPM_P2
2023/06/04 00:01:33;;;;;;;0.00;0.00;;;;;;;13.65;67.33;101052.66;6145771;23;20066;-70
2023/06/04 00:03:58;;;;;;;0.00;0.00;;;;;;;13.66;67.05;101038.66;6114584;23;20012;-70
2023/06/04 00:06:23;;;;;;;0.00;0.00;;;;;;;13.66;66.97;101035.09;6143365;22;20066;-69
2023/06/04 00:08:49;;;;;;;0.00;0.00;;;;;;;13.59;67.34;101051.81;6139483;23;20009;-71
2023/06/04 00:11:14;;;;;;;0.00;0.00;;;;;;;13.51;67.65;101055.13;6144963;23;20010;-70
2023/06/04 00:13:40;;;;;;;0.00;0.00;;;;;;;13.47;67.70;101048.50;6141070;23;20332;-69
2023/06/04 00:16:05;;;;;;;0.00;0.00;;;;;;;13.39;67.19;101055.34;6141724;23;20101;-69
2023/06/04 00:18:31;;;;;;;0.00;0.00;;;;;;;13.31;67.27;101062.16;6141460;23;20016;-69
2023/06/04 00:20:56;;;;;;;0.00;0.00;;;;;;;13.21;68.04;101051.94;6139117;23;20020;-70
2023/06/04 00:23:22;;;;;;;0.00;0.00;;;;;;;13.20;68.51;101060.44;6143855;23;20013;-70
2023/06/04 00:25:47;;;;;;;0.00;0.00;;;;;;;13.12;67.99;101058.25;6139925;23;20013;-71
2023/06/04 00:28:12;;;;;;;0.00;0.00;;;;;;;13.09;68.35;101054.09;6145768;23;20362;-70
2023/06/04 00:30:38;;;;;;;0.00;0.00;;;;;;;12.99;68.97;101046.63;6119377;23;20038;-70
2023/06/04 00:33:03;;;;;;;0.00;0.00;;;;;;;12.96;69.11;101038.13;6115546;23;20017;-69
2023/06/04 00:35:28;;;;;;;0.00;0.00;;;;;;;12.98;69.24;101049.66;6145416;23;20340;-72
2023/06/04 00:37:54;;;;;;;0.00;0.00;;;;;;;12.94;69.80;101046.63;6114359;23;20017;-70
2023/06/04 00:40:19;;;;;;;0.00;0.00;;;;;;;12.86;69.88;101045.19;6117563;23;20010;-70
2023/06/04 00:42:45;;;;;;;0.00;0.00;;;;;;;12.84;70.29;101054.81;6140550;23;20059;-70
2023/06/04 00:45:11;;;;;;;0.00;0.00;;;;;;;12.80;70.51;101045.44;6143075;23;20312;-71
2023/06/04 00:47:36;;;;;;;0.00;0.00;;;;;;;12.72;70.31;101053.09;6118779;23;20009;-72
2023/06/04 00:50:02;;;;;;;0.00;0.00;;;;;;;12.72;70.66;101050.34;6138210;23;20013;-71
2023/06/04 00:52:29;;;;;;;0.00;0.00;;;;;;;12.64;70.61;101048.09;6124003;23;20658;-72
2023/06/04 00:54:54;;;;;;;0.00;0.00;;;;;;;12.66;71.51;101051.41;6118139;23;20009;-75
2023/06/04 00:57:23;;;;;;;0.00;0.00;;;;;;;12.64;71.69;101048.09;6140061;23;20013;-74
2023/06/04 00:59:49;;;;;;;0.00;0.00;;;;;;;12.59;71.59;101050.81;6145167;23;20059;-75
2023/06/04 01:02:22;;;;;;;0.00;0.00;;;;;;;12.56;71.05;101045.84;6114635;23;20014;-74
2023/06/04 01:04:54;;;;;;;0.00;0.00;;;;;;;12.51;71.33;101054.03;6119341;23;20037;-73
2023/06/04 01:07:21;;;;;;;0.00;0.00;;;;;;;12.45;71.86;101049.59;6139634;22;20086;-71
2023/06/04 01:09:47;;;;;;;0.00;0.00;;;;;;;12.41;72.16;101041.06;6142925;23;20001;-74
2023/06/04 01:12:12;;;;;;;0.00;0.00;;;;;;;12.42;71.54;101041.91;6140652;23;20074;-73
2023/06/04 01:14:38;;;;;;;0.00;0.00;;;;;;;12.38;71.72;101036.94;6144091;23;20424;-73
2023/06/04 01:17:18;;;;;;;0.00;0.00;;;;;;;12.40;71.56;101040.25;6141697;23;20048;-72
2023/06/04 01:20:13;;;;;;;0.00;0.00;;;;;;;12.44;72.01;101028.75;6144076;23;20101;-73
2023/06/04 01:22:59;;;;;;;0.00;0.00;;;;;;;12.35;71.32;101029.25;6140270;23;20008;-73
2023/06/04 01:25:38;;;;;;;0.00;0.00;;;;;;;12.32;72.00;101024.28;6143681;23;20013;-73
2023/06/04 01:28:05;;;;;;;0.00;0.00;;;;;;;12.28;71.46;101034.13;6115935;23;20086;-72
2023/06/04 01:30:36;;;;;;;0.00;0.00;;;;;;;12.25;71.71;101031.91;6144475;23;20009;-72
2023/06/04 01:33:02;;;;;;;0.00;0.00;;;;;;;12.23;72.02;101032.16;6138437;23;20001;-73
2023/06/04 01:35:31;;;;;;;0.00;0.00;;;;;;;12.11;71.74;101034.25;6144129;23;20017;-72
2023/06/04 01:37:57;;;;;;;0.00;0.00;;;;;;;12.08;72.06;101032.03;6139236;23;20026;-72
2023/06/04 01:40:23;;;;;;;0.00;0.00;;;;;;;12.03;72.00;101027.34;6118131;23;20350;-72
2023/06/04 01:42:49;;;;;;;0.00;0.00;;;;;;;11.92;72.34;101031.06;6140619;23;20005;-73
2023/06/04 01:45:14;;;;;;;0.00;0.00;;;;;;;11.84;72.53;101032.38;6143823;23;20017;-73
2023/06/04 01:47:40;;;;;;;0.00;0.00;;;;;;;11.77;72.40;101037.22;6143294;23;20009;-73
2023/06/04 01:50:09;;;;;;;0.00;0.00;;;;;;;11.69;72.85;101035.75;6142301;23;20014;-73
2023/06/04 01:52:36;;;;;;;0.00;0.00;;;;;;;11.59;72.91;101043.06;6119024;23;20005;-72
2023/06/04 01:55:03;;;;;;;0.00;0.00;;;;;;;11.55;73.63;101037.28;6115013;23;20328;-72
2023/06/04 01:57:28;;;;;;;0.00;0.00;;;;;;;11.55;72.66;101036.44;6119682;23;20016;-75
2023/06/04 01:59:54;;;;;;;0.00;0.00;;;;;;;11.45;72.95;101029.78;6117973;23;20011;-72
2023/06/04 02:02:20;;;;;;;0.00;0.00;;;;;;;11.46;73.71;101030.59;6117388;23;20039;-73
2023/06/04 02:04:46;;;;;;;0.00;0.00;;;;;;;11.50;73.11;101026.25;6120844;23;20010;-72
2023/06/04 02:07:17;;;;;;;0.00;0.00;;;;;;;11.49;73.41;101028.19;6119284;23;20331;-71
2023/06/04 02:09:43;;;;;;;0.00;0.00;;;;;;;11.52;73.06;101029.56;6119087;23;20088;-71
2023/06/04 02:12:09;;;;;;;0.00;0.00;;;;;;;11.64;72.94;101019.28;6144210;23;20006;-70
2023/06/04 02:14:34;;;;;;;0.00;0.00;;;;;;;11.65;72.71;101031.91;6140824;23;20789;-71
2023/06/04 02:16:59;;;;;;;0.00;0.00;;;;;;;11.57;72.72;101037.84;6116954;23;20606;-70
2023/06/04 02:19:28;;;;;;;0.00;0.00;;;;;;;11.43;72.39;101034.66;6114094;23;20021;-70
2023/06/04 02:21:53;;;;;;;0.00;0.00;;;;;;;11.33;71.95;101035.38;6119305;23;20005;-71
2023/06/04 02:24:19;;;;;;;0.00;0.00;;;;;;;11.23;72.92;101035.28;6118040;23;20036;-71
2023/06/04 02:26:45;;;;;;;0.00;0.00;;;;;;;11.13;72.87;101035.16;6114881;23;20089;-72
2023/06/04 02:29:10;;;;;;;0.00;0.00;;;;;;;11.05;73.01;101027.38;6142500;23;20012;-71
2023/06/04 02:31:35;;;;;;;0.00;0.00;;;;;;;10.91;73.19;101033.22;6139374;23;20501;-71
2023/06/04 02:34:01;;;;;;;0.00;0.00;;;;;;;10.79;73.21;101032.50;6140855;23;20092;-70
2023/06/04 02:36:26;;;;;;;0.03;0.03;;;;;;;10.69;73.36;101035.09;6139925;23;20081;-71
2023/06/04 02:38:52;;;;;;;0.00;0.00;;;;;;;10.62;73.76;101029.81;6140918;23;20017;-71
2023/06/04 02:41:17;;;;;;;0.00;0.00;;;;;;;10.52;73.61;101025.03;6116093;23;20370;-71
2023/06/04 02:43:46;;;;;;;0.00;0.00;;;;;;;10.49;73.90;101031.00;6113843;23;20067;-70
2023/06/04 02:46:15;;;;;;;0.00;0.00;;;;;;;10.52;74.46;101033.22;6142788;23;20006;-72
2023/06/04 02:48:41;;;;;;;0.00;0.00;;;;;;;10.48;74.27;101021.97;6134398;23;20025;-72
2023/06/04 02:51:10;;;;;;;0.00;0.00;;;;;;;10.44;73.94;101025.44;6116055;23;20013;-72
2023/06/04 02:53:36;;;;;;;0.00;0.00;;;;;;;10.45;74.02;101033.41;6137647;23;20011;-71
2023/06/04 02:56:01;;;;;;;0.00;0.00;;;;;;;10.47;74.32;101033.16;6116482;23;20009;-71
2023/06/04 02:58:28;;;;;;;0.00;0.00;;;;;;;10.55;74.67;101034.63;6143431;23;20006;-72
2023/06/04 03:00:54;;;;;;;0.00;0.00;;;;;;;10.60;74.70;101026.50;6112341;23;20468;-71
2023/06/04 03:03:20;;;;;;;0.00;0.00;;;;;;;10.67;74.89;101018.13;6142072;23;20016;-71
2023/06/04 03:05:46;;;;;;;0.00;0.00;;;;;;;10.62;74.35;101025.16;6138440;23;20009;-71
2023/06/04 03:08:11;;;;;;;0.00;0.00;;;;;;;10.64;74.78;101033.97;6115443;23;20124;-74
2023/06/04 03:10:37;;;;;;;0.00;0.00;;;;;;;10.60;74.69;101027.34;6138735;23;20049;-71
2023/06/04 03:13:03;;;;;;;0.00;0.00;;;;;;;10.55;74.73;101029.16;6116169;23;20062;-70
2023/06/04 03:15:28;;;;;;;0.00;0.00;;;;;;;10.45;75.01;101036.16;6140901;23;20033;-72
2023/06/04 03:17:54;;;;;;;0.00;0.00;;;;;;;10.30;75.15;101039.41;6137909;23;20028;-70
2023/06/04 03:20:23;;;;;;;0.00;0.00;;;;;;;10.14;75.21;101038.34;6116408;23;20124;-70
2023/06/04 03:22:49;;;;;;;0.00;0.00;;;;;;;10.02;75.56;101048.53;6135034;23;20010;-71
2023/06/04 03:25:15;;;;;;;0.00;0.00;;;;;;;9.92;75.50;101037.44;6142871;23;20084;-71
2023/06/04 03:27:40;;;;;;;0.00;0.00;;;;;;;9.82;75.75;101039.97;6138180;23;20009;-71
2023/06/04 03:30:06;;;;;;;0.00;0.00;;;;;;;9.70;76.17;101040.03;6142067;23;20028;-71
2023/06/04 03:32:32;;;;;;;0.00;0.00;;;;;;;9.66;76.04;101044.34;6116284;23;20009;-71
2023/06/04 03:34:57;;;;;;;0.00;0.00;;;;;;;9.56;76.36;101034.03;6112082;23;20006;-70
2023/06/04 03:37:23;;;;;;;0.00;0.00;;;;;;;9.56;76.46;101044.97;6116597;22;20070;-70
2023/06/04 03:39:48;;;;;;;0.00;0.00;;;;;;;9.51;76.92;101034.78;6137917;23;20078;-71
2023/06/04 03:42:13;;;;;;;0.00;0.00;;;;;;;9.46;76.80;101034.66;6142010;23;20017;-72
2023/06/04 03:44:39;;;;;;;0.00;0.00;;;;;;;9.40;77.13;101022.00;6112581;23;20013;-72
2023/06/04 03:47:04;;;;;;;0.00;0.00;;;;;;;9.38;77.04;101032.34;6091555;23;20009;-71
2023/06/04 03:49:32;;;;;;;0.00;0.00;;;;;;;9.30;77.46;101036.28;6144339;23;20014;-76
2023/06/04 03:51:57;;;;;;;0.00;0.00;;;;;;;9.00;77.80;101011.94;6094144;23;20016;-75
2023/06/04 03:54:23;;;;;;;0.00;0.00;;;;;;;8.91;78.39;101034.13;6096909;23;20332;-74
2023/06/04 03:56:48;;;;;;;0.00;0.00;;;;;;;8.72;78.76;101030.72;6097068;23;20406;-75
2023/06/04 03:59:14;;;;;;;0.00;0.00;;;;;;;8.58;78.80;101025.75;6098429;23;19998;-75
2023/06/04 04:01:39;;;;;;;0.00;0.00;;;;;;;8.48;79.79;101029.88;6147835;23;20006;-74
2023/06/04 04:04:05;;;;;;;0.00;0.00;;;;;;;8.35;80.83;101025.50;6148831;23;20420;-75
2023/06/04 04:06:31;;;;;;;0.00;0.00;;;;;;;8.35;80.66;101032.81;6123129;23;20013;-75
2023/06/04 04:08:58;;;;;;;0.00;0.00;;;;;;;8.36;80.38;101037.22;6117091;23;20038;-76
2023/06/04 04:11:23;;;;;;;0.00;0.00;;;;;;;8.32;80.57;101036.03;6118734;23;20005;-74
2023/06/04 04:13:49;;;;;;;0.00;0.00;;;;;;;8.30;81.25;101035.44;6146095;22;20002;-75
2023/06/04 04:16:15;;;;;;;0.00;0.00;;;;;;;8.26;81.72;101036.97;6118100;23;20044;-75
2023/06/04 04:18:45;;;;;;;0.00;0.00;;;;;;;8.24;81.15;101039.13;6096452;23;20409;-75
2023/06/04 04:21:10;;;;;;;0.00;0.00;;;;;;;8.19;81.80;101037.91;6144235;23;20339;-75
2023/06/04 04:23:38;;;;;;;0.00;0.00;;;;;;;8.16;81.43;101038.41;6120647;23;20416;-74
2023/06/04 04:26:03;;;;;;;0.05;0.05;;;;;;;8.11;81.43;101023.81;6094357;23;20006;-75
2023/06/04 04:28:28;;;;;;;0.00;0.00;;;;;;;8.22;81.92;101042.06;6121291;23;20016;-75
2023/06/04 04:30:56;;;;;;;0.00;0.00;;;;;;;8.25;81.53;101046.19;6120824;23;20078;-73
2023/06/04 04:33:24;;;;;;;0.00;0.00;;;;;;;8.16;81.98;101032.09;6119338;23;20006;-74
2023/06/04 04:35:50;;;;;;;0.00;0.00;;;;;;;8.25;81.30;101038.03;6121880;23;20044;-77
2023/06/04 04:38:17;;;;;;;0.00;0.00;;;;;;;8.24;81.85;101034.47;6142866;23;20026;-76
2023/06/04 04:40:42;;;;;;;0.00;0.00;;;;;;;8.28;81.53;101030.22;6248476;22;20063;-75
2023/06/04 04:43:08;;;;;;;0.00;0.00;;;;;;;8.40;81.73;101043.84;6117953;23;20009;-76
2023/06/04 04:45:34;;;;;;;0.00;0.00;;;;;;;8.47;81.25;101044.59;6146519;22;20097;-75
2023/06/04 04:47:59;;;;;;;0.00;0.00;;;;;;;8.52;81.87;101047.44;6093466;23;20020;-76
2023/06/04 04:50:24;;;;;;;0.00;0.00;;;;;;;8.53;81.80;101040.91;6145610;23;20112;-76
2023/06/04 04:52:50;;;;;;;0.00;0.00;;;;;;;8.62;81.65;101046.03;6097450;23;20039;-76
2023/06/04 04:55:15;;;;;;;0.00;0.00;;;;;;;8.62;81.45;101040.56;6144507;23;20017;-76
2023/06/04 04:57:41;;;;;;;0.03;0.03;;;;;;;8.71;81.49;101050.03;6122469;23;20706;-75
2023/06/04 05:00:09;;;;;;;0.00;0.00;;;;;;;8.78;80.94;101056.22;6117598;23;20006;-76
2023/06/04 05:02:37;;;;;;;0.00;0.00;;;;;;;8.86;80.74;101047.66;6148523;23;20009;-78
2023/06/04 05:05:03;;;;;;;0.00;0.00;;;;;;;8.93;80.73;101050.25;6146276;23;20005;-76
2023/06/04 05:07:29;;;;;;;0.00;0.00;;;;;;;8.95;80.67;101039.09;6151864;23;20328;-77
2023/06/04 05:09:55;;;;;;;0.00;0.00;;;;;;;8.94;80.53;101016.47;6122327;23;20005;-76
2023/06/04 05:12:20;;;;;;;0.00;0.00;;;;;;;9.16;80.48;101046.66;6094815;23;20479;-77
2023/06/04 05:14:46;;;;;;;0.00;0.00;;;;;;;9.19;80.25;101040.69;6122351;23;20014;-76
2023/06/04 05:17:12;;;;;;;0.00;0.00;;;;;;;9.30;80.01;101041.75;6097592;23;20420;-77
2023/06/04 05:19:38;;;;;;;0.00;0.00;;;;;;;9.45;79.92;101043.94;6120392;23;20005;-78
2023/06/04 05:22:04;;;;;;;0.00;0.00;;;;;;;9.52;79.45;101044.63;6122545;23;20059;-78
2023/06/04 05:24:31;;;;;;;0.00;0.00;;;;;;;9.66;79.43;101044.34;6146328;23;20525;-77
2023/06/04 05:26:57;;;;;;;0.00;0.00;;;;;;;9.75;78.78;101051.06;6123533;23;20094;-78
2023/06/04 05:29:23;;;;;;;0.00;0.00;;;;;;;9.81;78.58;101049.25;6143890;23;20010;-77
2023/06/04 05:31:49;;;;;;;0.00;0.00;;;;;;;9.88;78.71;101048.00;6124423;22;20487;-76
2023/06/04 05:34:16;;;;;;;0.00;0.00;;;;;;;9.95;78.02;101037.75;6151748;23;20017;-75
2023/06/04 05:36:42;;;;;;;0.00;0.00;;;;;;;10.07;77.75;101045.06;6151384;23;20005;-76
2023/06/04 05:39:09;;;;;;;0.05;0.05;;;;;;;10.14;77.39;101040.25;6105774;23;20006;-77
2023/06/04 05:41:35;;;;;;;0.00;0.00;;;;;;;10.15;77.09;101036.47;6122792;23;20009;-75
2023/06/04 05:44:01;;;;;;;0.00;0.00;;;;;;;10.33;76.68;101054.50;6152445;23;20033;-75
2023/06/04 05:46:27;;;;;;;0.00;0.00;;;;;;;10.37;76.27;101043.94;6148070;23;20089;-77
2023/06/04 05:48:53;;;;;;;0.00;0.00;;;;;;;10.52;76.22;101041.44;6124036;23;20375;-76
2023/06/04 05:51:19;;;;;;;0.00;0.00;;;;;;;10.70;76.18;101047.69;6146468;22;20258;-77
2023/06/04 05:53:45;;;;;;;0.00;0.00;;;;;;;10.80;75.14;101045.09;6143653;23;20005;-76
2023/06/04 05:56:11;;;;;;;0.00;0.00;;;;;;;10.90;75.05;101042.50;6123268;23;20352;-76
2023/06/04 05:58:37;;;;;;;0.00;0.00;;;;;;;11.02;74.56;101041.56;6096460;23;20005;-78
2023/06/04 06:01:03;;;;;;;0.00;0.00;;;;;;;11.12;74.15;101038.97;6116891;23;20009;-77
2023/06/04 06:03:28;;;;;;;0.00;0.00;;;;;;;11.33;74.01;101056.44;6145501;22;20012;-77
2023/06/04 06:05:54;;;;;;;0.00;0.00;;;;;;;11.41;72.94;101057.94;6098403;23;20009;-78
2023/06/04 06:08:20;;;;;;;0.00;0.00;;;;;;;11.53;72.89;101055.88;6121208;23;20009;-77
2023/06/04 06:10:46;;;;;;;0.00;0.00;;;;;;;11.65;72.54;101059.31;6141542;23;20371;-76
2023/06/04 06:13:12;;;;;;;0.00;0.00;;;;;;;11.75;71.53;101050.34;6120299;23;20014;-77
2023/06/04 06:15:38;;;;;;;0.00;0.00;;;;;;;11.84;71.08;101050.69;6147053;23;20140;-76
2023/06/04 06:18:04;;;;;;;0.00;0.00;;;;;;;11.98;70.19;101051.97;6119907;23;20012;-77
2023/06/04 06:20:29;;;;;;;0.00;0.00;;;;;;;12.13;70.38;101056.75;6121907;23;20009;-79
2023/06/04 06:22:55;;;;;;;0.00;0.00;;;;;;;12.20;69.67;101051.06;6144063;23;20010;-79
2023/06/04 06:25:20;;;;;;;0.00;0.00;;;;;;;12.41;69.01;101060.25;6121388;23;20754;-78
2023/06/04 06:27:45;;;;;;;0.00;0.00;;;;;;;12.55;68.77;101055.16;6118486;23;20063;-78
2023/06/04 06:30:12;;;;;;;0.00;0.00;;;;;;;12.72;68.18;101053.09;6119916;23;20006;-77
2023/06/04 06:32:38;;;;;;;0.00;0.00;;;;;;;12.92;66.71;101055.13;6120079;23;20009;-77
2023/06/04 06:35:03;;;;;;;0.00;0.00;;;;;;;13.04;66.60;101046.66;6141487;22;20078;-76
2023/06/04 06:37:29;;;;;;;0.00;0.00;;;;;;;13.19;65.57;101042.34;6119855;23;20013;-76
2023/06/04 06:39:57;;;;;;;0.00;0.00;;;;;;;13.32;64.94;101044.59;6092399;23;20014;-78
2023/06/04 06:52:42;;;;;;;0.00;0.00;;;;;;;13.71;60.16;101022.19;6103322;23;20516;-76
2023/06/04 06:55:10;;;;;;;0.00;0.00;;;;;;;13.77;59.98;101015.59;6000222;23;20011;-77
2023/06/04 06:57:36;;;;;;;0.00;0.00;;;;;;;13.98;59.57;101029.34;6138566;23;20016;-80
2023/06/04 07:00:02;;;;;;;0.00;0.00;;;;;;;14.17;59.45;101028.81;6144831;23;20033;-77
2023/06/04 07:02:28;;;;;;;0.00;0.00;;;;;;;14.45;58.69;101052.97;6097927;23;20010;-78
2023/06/04 07:04:54;;;;;;;0.00;0.00;;;;;;;14.66;58.39;101069.53;6122928;23;20062;-80
2023/06/04 07:07:19;;;;;;;0.00;0.00;;;;;;;14.74;57.93;101052.44;6120390;23;20031;-79
2023/06/04 07:09:45;;;;;;;0.00;0.00;;;;;;;14.80;57.33;101053.25;6147886;23;20001;-79
2023/06/04 07:12:10;;;;;;;0.00;0.00;;;;;;;14.96;57.14;101048.53;6123072;23;20009;-79
2023/06/04 07:14:36;;;;;;;0.00;0.00;;;;;;;15.19;56.80;101064.41;6097472;23;20010;-77
2023/06/04 07:17:01;;;;;;;0.00;0.00;;;;;;;15.30;56.40;101056.09;6124312;23;20010;-77
2023/06/04 07:19:27;;;;;;;0.00;0.00;;;;;;;15.44;55.49;101079.19;6122098;23;20039;-77
2023/06/04 07:21:56;;;;;;;0.00;0.00;;;;;;;15.40;54.92;101047.78;6124788;23;20013;-78
2023/06/04 07:24:22;;;;;;;0.00;0.00;;;;;;;15.59;54.31;101058.16;6122501;22;20006;-77
2023/06/04 07:26:48;;;;;;;0.00;0.00;;;;;;;15.75;53.92;101062.47;6127931;23;20084;-79
2023/06/04 07:29:14;;;;;;;0.00;0.00;;;;;;;15.78;53.39;101056.41;6105718;23;20057;-78
2023/06/04 07:31:39;;;;;;;0.00;0.00;;;;;;;15.97;53.05;101075.88;6147204;23;20006;-74
2023/06/04 07:34:37;;;;;;;;;;;;;;;;;;;;;
2023/06/04 07:37:03;;;;;;;0.00;0.00;;;;;;;16.12;52.01;101072.19;6147273;23;20491;-73
2023/06/04 07:39:29;;;;;;;0.00;0.00;;;;;;;16.28;52.04;101085.84;6143320;23;20036;-76
2023/06/04 07:41:54;;;;;;;0.00;0.00;;;;;;;16.29;51.50;101068.19;6095189;23;20037;-75
2023/06/04 07:44:30;;;;;;;;;;;;;;;;;;;;;
2023/06/04 07:46:55;;;;;;;0.00;0.00;;;;;;;16.54;50.87;101056.94;6144241;23;20084;-74
2023/06/04 07:49:21;;;;;;;0.00;0.00;;;;;;;16.70;50.51;101071.38;6121102;23;20045;-74
2023/06/04 07:51:47;;;;;;;0.00;0.00;;;;;;;16.77;50.54;101075.75;6092504;23;20009;-75
2023/06/04 07:54:14;;;;;;;0.00;0.00;;;;;;;16.88;49.75;101072.63;6095941;23;20033;-75
2023/06/04 07:56:39;;;;;;;0.00;0.00;;;;;;;17.03;49.29;101073.56;6219123;23;20021;-75
2023/06/04 07:59:04;;;;;;;0.00;0.00;;;;;;;17.18;48.73;101076.13;6096616;23;20009;-75
2023/06/04 08:01:30;;;;;;;0.00;0.00;;;;;;;17.22;48.34;101066.16;6120448;23;20308;-74
2023/06/04 08:03:58;;;;;;;0.00;0.00;;;;;;;17.26;48.38;101067.22;6115769;23;20336;-74
2023/06/04 08:06:24;;;;;;;0.00;0.00;;;;;;;17.39;48.53;101078.66;6146046;23;20013;-74
2023/06/04 08:08:51;;;;;;;0.00;0.00;;;;;;;17.55;48.39;101085.66;6118924;23;20009;-75
2023/06/04 08:11:17;;;;;;;0.00;0.00;;;;;;;17.71;48.05;101096.47;6145559;23;20006;-73
2023/06/04 08:13:43;;;;;;;0.00;0.00;;;;;;;17.73;47.37;101080.44;6122151;23;20432;-74
2023/06/04 08:16:10;;;;;;;0.00;0.00;;;;;;;17.85;47.65;101089.09;6121258;23;20013;-74
2023/06/04 08:18:39;;;;;;;0.00;0.00;;;;;;;18.01;47.24;101091.66;6122512;23;20001;-74
2023/06/04 08:21:06;;;;;;;0.00;0.00;;;;;;;18.06;46.96;101097.09;6119361;23;20014;-71
2023/06/04 08:23:32;;;;;;;0.00;0.00;;;;;;;18.04;46.77;101078.03;6120815;23;20371;-71
2023/06/04 08:25:58;;;;;;;0.00;0.00;;;;;;;18.20;46.90;101095.22;6141106;23;20055;-71
2023/06/04 08:28:24;;;;;;;0.00;0.00;;;;;;;18.33;46.31;101087.28;6144581;23;20001;-71
2023/06/04 08:30:50;;;;;;;0.00;0.00;;;;;;;18.38;46.54;101095.50;6119068;23;20001;-72
2023/06/04 08:33:15;;;;;;;0.00;0.00;;;;;;;18.42;46.32;101093.78;6114865;23;20008;-71
2023/06/04 08:35:40;;;;;;;0.00;0.00;;;;;;;18.43;46.10;101085.16;6120973;23;20088;-71
2023/06/04 08:38:06;;;;;;;0.00;0.00;;;;;;;18.54;46.25;101083.03;6116999;23;20989;-72
2023/06/04 08:40:31;;;;;;;0.00;0.00;;;;;;;18.76;45.75;101099.00;6094790;23;20093;-71
2023/06/04 08:42:58;;;;;;;0.00;0.00;;;;;;;18.97;45.89;101096.69;6141152;23;20013;-70
2023/06/04 08:45:23;;;;;;;0.00;0.00;;;;;;;19.19;46.18;101097.94;6117617;23;20010;-70
2023/06/04 08:47:50;;;;;;;0.00;0.00;;;;;;;19.41;45.77;101085.28;6143891;23;20017;-69
2023/06/04 08:50:25;;;;;;;0.00;0.00;;;;;;;19.69;45.77;101100.75;6138868;23;20036;-69
2023/06/04 08:52:54;;;;;;;;;;;;;;;19.90;45.54;101105.88;6141916;23;20016;-69
2023/06/04 08:55:20;;;;;;;0.00;0.00;;;;;;;20.05;45.15;101099.97;6137761;23;19917;-72
2023/06/04 08:57:49;;;;;;;0.00;0.00;;;;;;;20.14;44.95;101099.22;6144498;23;20012;-69
2023/06/04 09:00:15;;;;;;;0.00;0.00;;;;;;;20.25;45.14;101108.94;6113282;23;20004;-71
2023/06/04 09:02:41;;;;;;;0.00;0.00;;;;;;;20.37;44.80;101092.53;6118291;23;20009;-72
2023/06/04 09:05:09;;;;;;;0.00;0.00;;;;;;;20.47;44.19;101101.72;6089377;23;20017;-72
2023/06/04 09:07:40;;;;;;;0.00;0.00;;;;;;;20.55;44.31;101103.75;6143321;23;20055;-72
2023/06/04 09:10:12;;;;;;;0.00;0.00;;;;;;;20.62;44.10;101101.34;6140977;23;20017;-73
2023/06/04 09:12:43;;;;;;;0.00;0.00;;;;;;;20.66;43.44;101105.16;6119907;23;20024;-71
2023/06/04 09:15:08;;;;;;;0.00;0.00;;;;;;;20.67;43.19;101111.53;6144613;23;20360;-71
2023/06/04 09:17:34;;;;;;;0.00;0.00;;;;;;;20.60;42.85;101114.72;6142411;22;20013;-73
2023/06/04 09:20:00;;;;;;;0.00;0.00;;;;;;;20.55;42.76;101112.09;6119061;23;20578;-73
2023/06/04 09:22:33;;;;;;;0.00;0.00;;;;;;;20.44;42.18;101108.72;6146257;23;20020;-73
2023/06/04 09:24:59;;;;;;;0.00;0.00;;;;;;;20.42;42.21;101105.47;6118779;23;20006;-73
2023/06/04 09:27:26;;;;;;;0.00;0.00;;;;;;;20.40;41.81;101114.13;6118522;23;20152;-70
2023/06/04 09:29:53;;;;;;;0.00;0.00;;;;;;;20.35;42.11;101114.22;6139925;23;20005;-68
2023/06/04 09:32:26;;;;;;;0.00;0.00;;;;;;;20.39;42.13;101115.25;6144410;22;20478;-71
2023/06/04 09:34:53;;;;;;;0.00;0.00;;;;;;;20.49;41.88;101105.03;6113188;23;20010;-71
2023/06/04 09:37:19;;;;;;;0.00;0.00;;;;;;;20.56;41.78;101110.97;6143206;23;20100;-69
2023/06/04 09:39:56;;;;;;;0.00;0.00;;;;;;;20.77;41.51;101116.00;6113469;23;20025;-70
2023/06/04 09:42:22;;;;;;;0.00;0.00;;;;;;;20.85;41.64;101115.22;6141129;23;20005;-69
2023/06/04 09:44:48;;;;;;;0.00;0.00;;;;;;;21.05;41.68;101106.31;6107572;23;20017;-71
2023/06/04 09:47:15;;;;;;;0.00;0.00;;;;;;;21.33;41.76;101117.22;6115412;23;20371;-71
2023/06/04 09:49:49;;;;;;;0.00;0.00;;;;;;;21.44;40.96;101121.34;6138622;23;20113;-70
2023/06/04 09:52:14;;;;;;;0.00;0.00;;;;;;;21.43;40.47;101111.34;6140929;23;20059;-69
2023/06/04 09:54:41;;;;;;;0.00;0.00;;;;;;;21.48;40.79;101109.56;6118235;23;20013;-70
2023/06/04 09:57:19;;;;;;;0.00;0.00;;;;;;;21.53;40.71;101109.47;6138059;23;20010;-71
2023/06/04 09:59:46;;;;;;;0.00;0.00;;;;;;;21.69;40.51;101119.00;6117508;23;20084;-70
2023/06/04 10:02:13;;;;;;;0.00;0.00;;;;;;;21.77;40.42;101109.84;6138821;23;20005;-69
2023/06/04 10:04:42;;;;;;;0.00;0.00;;;;;;;21.86;40.53;101114.56;6143535;23;20080;-70
2023/06/04 10:07:10;;;;;;;0.00;0.00;;;;;;;21.92;40.28;101116.09;6136421;23;20849;-69
2023/06/04 10:09:45;;;;;;;0.00;0.00;;;;;;;21.93;39.74;101117.69;6141877;23;20080;-69
2023/06/04 10:12:15;;;;;;;0.00;0.00;;;;;;;22.10;39.55;101117.72;6143488;23;20699;-71
2023/06/04 10:14:48;;;;;;;0.00;0.00;;;;;;;22.24;39.53;101122.28;6146391;23;20009;-72
2023/06/04 10:17:15;;;;;;;0.00;0.00;;;;;;;22.38;39.15;101122.97;6147723;23;20016;-70
2023/06/04 10:19:44;;;;;;;0.00;0.00;;;;;;;22.58;39.35;101120.66;6143101;23;20076;-70
2023/06/04 10:22:11;;;;;;;0.00;0.00;;;;;;;22.63;38.14;101120.47;6120764;23;20005;-70
2023/06/04 10:24:37;;;;;;;0.00;0.00;;;;;;;22.79;37.72;101131.91;6112367;23;20436;-70
2023/06/04 10:27:10;;;;;;;0.00;0.00;;;;;;;22.79;37.92;101118.81;6115805;23;20017;-70
2023/06/04 10:29:36;;;;;;;0.00;0.00;;;;;;;22.96;37.98;101119.91;6109363;22;20014;-69
2023/06/04 10:32:02;;;;;;;0.00;0.00;;;;;;;23.16;37.74;101135.13;6114572;23;20340;-69
2023/06/04 10:34:28;;;;;;;0.00;0.00;;;;;;;23.53;37.23;101136.22;6111823;23;20063;-70
2023/06/04 10:36:53;;;;;;;0.00;0.00;;;;;;;23.91;37.15;101122.56;6115240;22;20313;-70
2023/06/04 10:39:32;;;;;;;0.00;0.00;;;;;;;24.39;35.65;101123.97;6109684;23;20059;-71
2023/06/04 10:42:02;;;;;;;0.00;0.00;;;;;;;24.97;34.90;101131.59;6110191;23;20031;-71
2023/06/04 10:44:31;;;;;;;0.00;0.00;;;;;;;25.66;34.19;101120.69;6110978;23;20437;-69
2023/06/04 10:46:57;;;;;;;0.00;0.00;;;;;;;26.53;32.51;101122.03;6059298;23;20388;-71
2023/06/04 10:49:31;;;;;;;0.00;0.00;;;;;;;27.24;31.00;101127.13;6112193;23;20006;-70
2023/06/04 10:51:57;;;;;;;;;;;;;;;28.25;29.46;101130.22;6107181;23;20006;-70
2023/06/04 10:54:25;;;;;;;0.00;0.00;;;;;;;29.66;27.38;101122.28;6111803;23;19905;-70
2023/06/04 10:56:53;;;;;;;0.00;0.00;;;;;;;31.08;26.02;101125.59;6107663;23;20128;-71
2023/06/04 10:59:18;;;;;;;0.00;0.00;;;;;;;32.40;24.85;101130.41;6111184;23;20013;-71
2023/06/04 11:01:45;;;;;;;0.00;0.00;;;;;;;33.46;22.74;101127.31;6082258;23;20010;-74
2023/06/04 11:04:25;;;;;;;0.00;0.00;;;;;;;36.31;21.90;101128.13;6090055;23;21618;-75
2023/06/04 11:07:08;;;;;;;0.00;0.00;;;;;;;40.50;16.13;101116.81;6085014;23;20013;-76
2023/06/04 11:09:35;;;;;;;0.00;0.00;;;;;;;43.36;13.20;101115.06;6087603;23;20014;-76
2023/06/04 11:12:01;;;;;;;0.00;0.00;;;;;;;45.46;12.29;101123.91;6088770;23;20002;-76
2023/06/04 11:14:27;;;;;;;0.00;0.00;;;;;;;47.47;11.05;101115.75;6086170;23;20010;-77
2023/06/04 11:16:52;;;;;;;0.00;0.00;;;;;;;49.26;9.54;101122.66;6066771;23;20016;-77
2023/06/04 11:19:18;;;;;;;0.00;0.00;;;;;;;49.88;9.12;101119.06;6085917;23;20010;-76
2023/06/04 11:21:45;;;;;;;0.00;0.00;;;;;;;50.71;9.01;101107.91;6089649;23;20006;-78
2023/06/04 11:24:12;;;;;;;0.00;0.00;;;;;;;51.37;7.98;101101.53;6110925;23;20054;-75
2023/06/04 11:26:38;;;;;;;0.00;0.00;;;;;;;51.56;7.23;101106.72;6111187;23;20014;-77
2023/06/04 11:29:08;;;;;;;0.00;0.00;;;;;;;51.82;6.93;101112.91;6093805;23;20487;-76
2023/06/04 11:31:43;;;;;;;0.00;0.00;;;;;;;52.29;7.29;101108.25;6111352;23;20010;-74
2023/06/04 11:34:09;;;;;;;0.00;0.00;;;;;;;52.94;6.73;101103.56;6114106;23;20025;-76
2023/06/04 11:36:36;;;;;;;0.00;0.00;;;;;;;53.26;6.43;101105.00;6115457;23;20010;-76
2023/06/04 11:39:06;;;;;;;0.00;0.00;;;;;;;53.77;6.55;101110.88;6111340;23;20508;-78